sensor_id;sensor_type;location;lat;lon;timestamp;P1;durP1;ratioP1;P2;durP2;ratioP2
74233;SDS011;62591;55.764;37.718;2023-01-15T00:00:05;12.85;;;7.30;;
74233;SDS011;62591;55.764;37.718;2023-01-15T00:02:34;14.23;;;6.70;;
74233;SDS011;62591;55.764;37.718;2023-01-15T00:05:03;14.55;;;7.47;;
74233;SDS011;62591;55.764;37.718;2023-01-15T00:07:35;14.90;;;7.50;;
74233;SDS011;62591;55.764;37.718;2023-01-15T00:10:04;15.35;;;8.20;;
74233;SDS011;62591;55.764;37.718;2023-01-15T00:12:33;13.32;;;6.90;;
74233;SDS011;62591;55.764;37.718;2023-01-15T00:15:03;14.77;;;7.35;;
74233;SDS011;62591;55.764;37.718;2023-01-15T00:17:32;14.57;;;7.65;;
74233;SDS011;62591;55.764;37.718;2023-01-15T00:20:01;12.82;;;7.28;;
74233;SDS011;62591;55.764;37.718;2023-01-15T00:22:29;20.17;;;9.38;;
74233;SDS011;62591;55.764;37.718;2023-01-15T00:24:58;17.77;;;9.88;;
74233;SDS011;62591;55.764;37.718;2023-01-15T00:27:44;20.17;;;10.98;;
74233;SDS011;62591;55.764;37.718;2023-01-15T00:32:46;18.95;;;8.95;;
74233;SDS011;62591;55.764;37.718;2023-01-15T00:35:15;16.65;;;9.18;;
74233;SDS011;62591;55.764;37.718;2023-01-15T00:37:45;15.63;;;7.55;;
74233;SDS011;62591;55.764;37.718;2023-01-15T00:40:15;17.17;;;8.90;;
74233;SDS011;62591;55.764;37.718;2023-01-15T00:42:44;18.63;;;8.40;;
74233;SDS011;62591;55.764;37.718;2023-01-15T00:45:22;19.50;;;8.95;;
74233;SDS011;62591;55.764;37.718;2023-01-15T00:47:50;20.15;;;8.95;;
74233;SDS011;62591;55.764;37.718;2023-01-15T00:50:19;16.27;;;9.75;;
74233;SDS011;62591;55.764;37.718;2023-01-15T00:52:48;17.35;;;8.52;;
74233;SDS011;62591;55.764;37.718;2023-01-15T00:55:16;15.80;;;8.35;;
74233;SDS011;62591;55.764;37.718;2023-01-15T00:57:45;15.23;;;7.72;;
74233;SDS011;62591;55.764;37.718;2023-01-15T01:00:14;14.95;;;8.07;;
74233;SDS011;62591;55.764;37.718;2023-01-15T01:02:46;17.63;;;7.38;;
74233;SDS011;62591;55.764;37.718;2023-01-15T01:05:16;13.75;;;6.43;;
74233;SDS011;62591;55.764;37.718;2023-01-15T01:07:44;17.33;;;7.03;;
74233;SDS011;62591;55.764;37.718;2023-01-15T01:12:41;15.38;;;7.47;;
74233;SDS011;62591;55.764;37.718;2023-01-15T01:15:10;15.75;;;7.65;;
74233;SDS011;62591;55.764;37.718;2023-01-15T01:17:38;16.00;;;7.07;;
74233;SDS011;62591;55.764;37.718;2023-01-15T01:20:11;19.17;;;7.00;;
74233;SDS011;62591;55.764;37.718;2023-01-15T01:22:40;15.43;;;7.50;;
74233;SDS011;62591;55.764;37.718;2023-01-15T01:25:08;15.90;;;7.18;;
74233;SDS011;62591;55.764;37.718;2023-01-15T01:27:38;18.83;;;7.20;;
74233;SDS011;62591;55.764;37.718;2023-01-15T01:30:07;16.27;;;7.20;;
74233;SDS011;62591;55.764;37.718;2023-01-15T01:32:36;13.93;;;6.90;;
74233;SDS011;62591;55.764;37.718;2023-01-15T01:35:05;15.02;;;7.05;;
74233;SDS011;62591;55.764;37.718;2023-01-15T01:37:35;14.20;;;6.40;;
74233;SDS011;62591;55.764;37.718;2023-01-15T01:40:04;15.38;;;6.60;;
74233;SDS011;62591;55.764;37.718;2023-01-15T01:42:33;16.05;;;7.20;;
74233;SDS011;62591;55.764;37.718;2023-01-15T01:45:04;12.30;;;5.68;;
74233;SDS011;62591;55.764;37.718;2023-01-15T01:47:35;23.15;;;6.85;;
74233;SDS011;62591;55.764;37.718;2023-01-15T01:50:05;20.35;;;7.18;;
74233;SDS011;62591;55.764;37.718;2023-01-15T01:52:40;14.50;;;6.43;;
74233;SDS011;62591;55.764;37.718;2023-01-15T01:55:13;17.55;;;7.50;;
74233;SDS011;62591;55.764;37.718;2023-01-15T01:57:45;12.82;;;6.28;;
74233;SDS011;62591;55.764;37.718;2023-01-15T02:00:16;14.77;;;6.60;;
74233;SDS011;62591;55.764;37.718;2023-01-15T02:02:46;17.25;;;7.22;;
74233;SDS011;62591;55.764;37.718;2023-01-15T02:05:19;17.80;;;7.88;;
74233;SDS011;62591;55.764;37.718;2023-01-15T02:07:56;16.50;;;6.93;;
74233;SDS011;62591;55.764;37.718;2023-01-15T02:10:26;15.60;;;6.85;;
74233;SDS011;62591;55.764;37.718;2023-01-15T02:12:58;17.80;;;8.65;;
74233;SDS011;62591;55.764;37.718;2023-01-15T02:15:33;17.42;;;6.53;;
74233;SDS011;62591;55.764;37.718;2023-01-15T02:18:08;14.80;;;6.80;;
74233;SDS011;62591;55.764;37.718;2023-01-15T02:20:44;16.58;;;7.22;;
74233;SDS011;62591;55.764;37.718;2023-01-15T02:23:30;16.08;;;6.90;;
74233;SDS011;62591;55.764;37.718;2023-01-15T02:26:19;13.88;;;6.68;;
74233;SDS011;62591;55.764;37.718;2023-01-15T02:29:00;14.18;;;7.10;;
74233;SDS011;62591;55.764;37.718;2023-01-15T02:31:32;21.38;;;8.25;;
74233;SDS011;62591;55.764;37.718;2023-01-15T02:34:04;16.38;;;8.00;;
74233;SDS011;62591;55.764;37.718;2023-01-15T02:36:38;17.05;;;7.35;;
74233;SDS011;62591;55.764;37.718;2023-01-15T02:39:18;14.45;;;8.02;;
74233;SDS011;62591;55.764;37.718;2023-01-15T02:41:50;19.13;;;7.38;;
74233;SDS011;62591;55.764;37.718;2023-01-15T02:44:28;18.42;;;7.28;;
74233;SDS011;62591;55.764;37.718;2023-01-15T02:46:59;15.10;;;6.72;;
74233;SDS011;62591;55.764;37.718;2023-01-15T02:49:32;16.42;;;7.75;;
74233;SDS011;62591;55.764;37.718;2023-01-15T02:52:05;20.83;;;8.00;;
74233;SDS011;62591;55.764;37.718;2023-01-15T02:54:40;17.60;;;7.55;;
74233;SDS011;62591;55.764;37.718;2023-01-15T02:57:14;19.05;;;7.55;;
74233;SDS011;62591;55.764;37.718;2023-01-15T02:59:53;17.13;;;7.60;;
74233;SDS011;62591;55.764;37.718;2023-01-15T03:02:26;17.73;;;7.28;;
74233;SDS011;62591;55.764;37.718;2023-01-15T03:05:00;18.02;;;7.20;;
74233;SDS011;62591;55.764;37.718;2023-01-15T03:07:39;20.50;;;7.55;;
74233;SDS011;62591;55.764;37.718;2023-01-15T03:10:14;19.92;;;7.07;;
74233;SDS011;62591;55.764;37.718;2023-01-15T03:12:44;17.20;;;7.10;;
74233;SDS011;62591;55.764;37.718;2023-01-15T03:18:36;18.33;;;7.07;;
74233;SDS011;62591;55.764;37.718;2023-01-15T03:21:12;16.02;;;6.72;;
74233;SDS011;62591;55.764;37.718;2023-01-15T03:23:45;21.42;;;7.15;;
74233;SDS011;62591;55.764;37.718;2023-01-15T03:26:18;22.02;;;8.40;;
74233;SDS011;62591;55.764;37.718;2023-01-15T03:28:47;21.08;;;7.85;;
74233;SDS011;62591;55.764;37.718;2023-01-15T03:31:19;25.92;;;7.68;;
74233;SDS011;62591;55.764;37.718;2023-01-15T03:33:48;20.73;;;7.60;;
74233;SDS011;62591;55.764;37.718;2023-01-15T03:36:21;18.00;;;7.63;;
74233;SDS011;62591;55.764;37.718;2023-01-15T03:38:52;19.23;;;7.57;;
74233;SDS011;62591;55.764;37.718;2023-01-15T03:41:43;18.58;;;6.80;;
74233;SDS011;62591;55.764;37.718;2023-01-15T03:44:23;18.63;;;7.47;;
74233;SDS011;62591;55.764;37.718;2023-01-15T03:47:07;17.67;;;7.68;;
74233;SDS011;62591;55.764;37.718;2023-01-15T03:49:49;17.17;;;7.03;;
74233;SDS011;62591;55.764;37.718;2023-01-15T03:52:43;20.50;;;7.60;;
74233;SDS011;62591;55.764;37.718;2023-01-15T03:55:19;28.42;;;7.97;;
74233;SDS011;62591;55.764;37.718;2023-01-15T03:57:59;18.10;;;7.97;;
74233;SDS011;62591;55.764;37.718;2023-01-15T04:00:37;17.33;;;7.50;;
74233;SDS011;62591;55.764;37.718;2023-01-15T04:03:14;19.63;;;8.18;;
74233;SDS011;62591;55.764;37.718;2023-01-15T04:05:44;19.25;;;7.88;;
74233;SDS011;62591;55.764;37.718;2023-01-15T04:08:16;15.70;;;7.10;;
74233;SDS011;62591;55.764;37.718;2023-01-15T04:10:52;20.55;;;8.27;;
74233;SDS011;62591;55.764;37.718;2023-01-15T04:13:24;19.20;;;6.97;;
74233;SDS011;62591;55.764;37.718;2023-01-15T04:15:57;14.77;;;7.30;;
74233;SDS011;62591;55.764;37.718;2023-01-15T04:18:27;18.35;;;7.95;;
74233;SDS011;62591;55.764;37.718;2023-01-15T04:20:56;19.33;;;7.53;;
74233;SDS011;62591;55.764;37.718;2023-01-15T04:23:26;19.42;;;7.82;;
74233;SDS011;62591;55.764;37.718;2023-01-15T04:25:54;19.27;;;7.30;;
74233;SDS011;62591;55.764;37.718;2023-01-15T04:28:23;16.13;;;7.40;;
74233;SDS011;62591;55.764;37.718;2023-01-15T04:30:52;15.75;;;7.22;;
74233;SDS011;62591;55.764;37.718;2023-01-15T04:33:26;16.60;;;6.95;;
74233;SDS011;62591;55.764;37.718;2023-01-15T04:35:57;24.83;;;7.97;;
74233;SDS011;62591;55.764;37.718;2023-01-15T04:38:26;16.65;;;7.25;;
74233;SDS011;62591;55.764;37.718;2023-01-15T04:40:59;21.65;;;9.43;;
74233;SDS011;62591;55.764;37.718;2023-01-15T04:44:00;16.83;;;6.97;;
74233;SDS011;62591;55.764;37.718;2023-01-15T04:46:35;35.17;;;15.48;;
74233;SDS011;62591;55.764;37.718;2023-01-15T04:49:07;26.20;;;7.82;;
74233;SDS011;62591;55.764;37.718;2023-01-15T04:51:38;17.38;;;7.43;;
74233;SDS011;62591;55.764;37.718;2023-01-15T04:54:07;18.45;;;7.30;;
74233;SDS011;62591;55.764;37.718;2023-01-15T04:56:37;21.25;;;7.53;;
74233;SDS011;62591;55.764;37.718;2023-01-15T04:59:07;25.45;;;8.80;;
74233;SDS011;62591;55.764;37.718;2023-01-15T05:01:36;21.23;;;8.07;;
74233;SDS011;62591;55.764;37.718;2023-01-15T05:04:06;22.02;;;7.65;;
74233;SDS011;62591;55.764;37.718;2023-01-15T05:06:35;19.00;;;9.05;;
74233;SDS011;62591;55.764;37.718;2023-01-15T05:09:04;22.58;;;7.63;;
74233;SDS011;62591;55.764;37.718;2023-01-15T05:11:33;21.95;;;7.90;;
74233;SDS011;62591;55.764;37.718;2023-01-15T05:14:03;21.50;;;7.72;;
74233;SDS011;62591;55.764;37.718;2023-01-15T05:16:32;19.38;;;7.40;;
74233;SDS011;62591;55.764;37.718;2023-01-15T05:19:01;22.48;;;8.18;;
74233;SDS011;62591;55.764;37.718;2023-01-15T05:21:36;23.45;;;8.20;;
74233;SDS011;62591;55.764;37.718;2023-01-15T05:24:09;21.33;;;8.35;;
74233;SDS011;62591;55.764;37.718;2023-01-15T05:26:41;18.42;;;8.00;;
74233;SDS011;62591;55.764;37.718;2023-01-15T05:29:11;23.83;;;8.32;;
74233;SDS011;62591;55.764;37.718;2023-01-15T05:31:40;23.40;;;9.20;;
74233;SDS011;62591;55.764;37.718;2023-01-15T05:34:11;19.60;;;8.30;;
74233;SDS011;62591;55.764;37.718;2023-01-15T05:36:41;25.52;;;7.53;;
74233;SDS011;62591;55.764;37.718;2023-01-15T05:39:09;23.20;;;8.52;;
74233;SDS011;62591;55.764;37.718;2023-01-15T05:41:38;21.30;;;7.82;;
74233;SDS011;62591;55.764;37.718;2023-01-15T05:44:17;25.10;;;8.52;;
74233;SDS011;62591;55.764;37.718;2023-01-15T05:46:48;18.65;;;7.57;;
74233;SDS011;62591;55.764;37.718;2023-01-15T05:49:19;29.23;;;9.63;;
74233;SDS011;62591;55.764;37.718;2023-01-15T05:51:50;29.73;;;10.95;;
74233;SDS011;62591;55.764;37.718;2023-01-15T05:54:21;25.65;;;8.50;;
74233;SDS011;62591;55.764;37.718;2023-01-15T05:56:51;21.23;;;9.10;;
74233;SDS011;62591;55.764;37.718;2023-01-15T05:59:20;26.67;;;8.00;;
74233;SDS011;62591;55.764;37.718;2023-01-15T06:01:51;26.73;;;8.77;;
74233;SDS011;62591;55.764;37.718;2023-01-15T06:04:21;31.00;;;9.65;;
74233;SDS011;62591;55.764;37.718;2023-01-15T06:06:53;23.35;;;7.85;;
74233;SDS011;62591;55.764;37.718;2023-01-15T06:09:22;29.08;;;13.90;;
74233;SDS011;62591;55.764;37.718;2023-01-15T06:11:53;26.45;;;11.23;;
74233;SDS011;62591;55.764;37.718;2023-01-15T06:14:23;27.48;;;9.00;;
74233;SDS011;62591;55.764;37.718;2023-01-15T06:16:52;23.60;;;8.70;;
74233;SDS011;62591;55.764;37.718;2023-01-15T06:19:21;22.17;;;8.00;;
74233;SDS011;62591;55.764;37.718;2023-01-15T06:21:49;18.60;;;8.60;;
74233;SDS011;62591;55.764;37.718;2023-01-15T06:24:19;26.88;;;9.05;;
74233;SDS011;62591;55.764;37.718;2023-01-15T06:26:48;26.60;;;9.07;;
74233;SDS011;62591;55.764;37.718;2023-01-15T06:29:17;21.38;;;8.10;;
74233;SDS011;62591;55.764;37.718;2023-01-15T06:31:46;23.88;;;8.65;;
74233;SDS011;62591;55.764;37.718;2023-01-15T06:34:16;22.65;;;7.65;;
74233;SDS011;62591;55.764;37.718;2023-01-15T06:36:44;29.95;;;8.60;;
74233;SDS011;62591;55.764;37.718;2023-01-15T06:39:14;22.65;;;8.23;;
74233;SDS011;62591;55.764;37.718;2023-01-15T06:41:44;18.88;;;7.35;;
74233;SDS011;62591;55.764;37.718;2023-01-15T06:44:30;20.83;;;8.02;;
74233;SDS011;62591;55.764;37.718;2023-01-15T06:47:16;24.25;;;7.78;;
74233;SDS011;62591;55.764;37.718;2023-01-15T06:49:51;22.80;;;8.05;;
74233;SDS011;62591;55.764;37.718;2023-01-15T06:52:21;25.52;;;8.77;;
74233;SDS011;62591;55.764;37.718;2023-01-15T06:54:51;25.40;;;9.98;;
74233;SDS011;62591;55.764;37.718;2023-01-15T06:57:22;27.23;;;8.77;;
74233;SDS011;62591;55.764;37.718;2023-01-15T06:59:50;24.05;;;8.63;;
74233;SDS011;62591;55.764;37.718;2023-01-15T07:02:19;22.75;;;8.88;;
74233;SDS011;62591;55.764;37.718;2023-01-15T07:04:48;22.67;;;8.32;;
74233;SDS011;62591;55.764;37.718;2023-01-15T07:07:18;25.90;;;8.02;;
74233;SDS011;62591;55.764;37.718;2023-01-15T07:09:47;24.42;;;9.88;;
74233;SDS011;62591;55.764;37.718;2023-01-15T07:12:16;23.00;;;7.85;;
74233;SDS011;62591;55.764;37.718;2023-01-15T07:14:46;21.60;;;8.45;;
74233;SDS011;62591;55.764;37.718;2023-01-15T07:17:15;23.60;;;9.05;;
74233;SDS011;62591;55.764;37.718;2023-01-15T07:19:44;26.48;;;8.77;;
74233;SDS011;62591;55.764;37.718;2023-01-15T07:22:13;27.40;;;8.93;;
74233;SDS011;62591;55.764;37.718;2023-01-15T07:24:41;23.13;;;8.50;;
74233;SDS011;62591;55.764;37.718;2023-01-15T07:27:10;27.42;;;8.88;;
74233;SDS011;62591;55.764;37.718;2023-01-15T07:29:38;22.60;;;8.95;;
74233;SDS011;62591;55.764;37.718;2023-01-15T07:32:08;23.75;;;7.88;;
74233;SDS011;62591;55.764;37.718;2023-01-15T07:34:37;21.27;;;8.75;;
74233;SDS011;62591;55.764;37.718;2023-01-15T07:37:06;32.58;;;9.02;;
74233;SDS011;62591;55.764;37.718;2023-01-15T07:39:34;26.38;;;8.20;;
74233;SDS011;62591;55.764;37.718;2023-01-15T07:42:03;28.38;;;8.38;;
74233;SDS011;62591;55.764;37.718;2023-01-15T07:44:49;22.10;;;9.10;;
74233;SDS011;62591;55.764;37.718;2023-01-15T07:47:37;22.63;;;7.97;;
74233;SDS011;62591;55.764;37.718;2023-01-15T07:50:24;26.60;;;8.85;;
74233;SDS011;62591;55.764;37.718;2023-01-15T07:52:52;29.50;;;9.65;;
74233;SDS011;62591;55.764;37.718;2023-01-15T07:55:21;23.55;;;8.63;;
74233;SDS011;62591;55.764;37.718;2023-01-15T07:57:50;22.30;;;9.07;;
74233;SDS011;62591;55.764;37.718;2023-01-15T08:00:20;26.73;;;10.48;;
74233;SDS011;62591;55.764;37.718;2023-01-15T08:02:51;28.48;;;9.65;;
74233;SDS011;62591;55.764;37.718;2023-01-15T08:05:21;29.20;;;11.00;;
74233;SDS011;62591;55.764;37.718;2023-01-15T08:07:49;24.33;;;10.23;;
74233;SDS011;62591;55.764;37.718;2023-01-15T08:10:18;26.50;;;9.60;;
74233;SDS011;62591;55.764;37.718;2023-01-15T08:12:48;29.73;;;10.35;;
74233;SDS011;62591;55.764;37.718;2023-01-15T08:15:36;23.95;;;8.98;;
74233;SDS011;62591;55.764;37.718;2023-01-15T08:18:11;25.23;;;9.57;;
74233;SDS011;62591;55.764;37.718;2023-01-15T08:20:39;28.20;;;9.57;;
74233;SDS011;62591;55.764;37.718;2023-01-15T08:23:08;20.60;;;9.48;;
74233;SDS011;62591;55.764;37.718;2023-01-15T08:25:36;26.95;;;9.98;;
74233;SDS011;62591;55.764;37.718;2023-01-15T08:28:08;24.05;;;9.82;;
74233;SDS011;62591;55.764;37.718;2023-01-15T08:30:39;26.45;;;9.93;;
74233;SDS011;62591;55.764;37.718;2023-01-15T08:33:09;28.60;;;9.95;;
74233;SDS011;62591;55.764;37.718;2023-01-15T08:35:38;27.85;;;9.80;;
74233;SDS011;62591;55.764;37.718;2023-01-15T08:38:08;22.45;;;11.05;;
74233;SDS011;62591;55.764;37.718;2023-01-15T08:40:36;30.83;;;10.18;;
74233;SDS011;62591;55.764;37.718;2023-01-15T08:43:24;22.02;;;9.63;;
74233;SDS011;62591;55.764;37.718;2023-01-15T08:45:54;23.58;;;8.13;;
74233;SDS011;62591;55.764;37.718;2023-01-15T08:48:27;24.17;;;9.18;;
74233;SDS011;62591;55.764;37.718;2023-01-15T08:51:02;22.05;;;9.23;;
74233;SDS011;62591;55.764;37.718;2023-01-15T08:53:31;23.40;;;9.25;;
74233;SDS011;62591;55.764;37.718;2023-01-15T08:56:00;25.48;;;9.50;;
74233;SDS011;62591;55.764;37.718;2023-01-15T08:58:29;22.90;;;10.88;;
74233;SDS011;62591;55.764;37.718;2023-01-15T09:01:02;20.45;;;9.02;;
74233;SDS011;62591;55.764;37.718;2023-01-15T09:03:33;21.77;;;9.18;;
74233;SDS011;62591;55.764;37.718;2023-01-15T09:06:02;22.70;;;9.80;;
74233;SDS011;62591;55.764;37.718;2023-01-15T09:08:32;24.92;;;9.75;;
74233;SDS011;62591;55.764;37.718;2023-01-15T09:11:01;25.25;;;10.18;;
74233;SDS011;62591;55.764;37.718;2023-01-15T09:13:31;23.85;;;10.00;;
74233;SDS011;62591;55.764;37.718;2023-01-15T09:16:03;23.42;;;9.50;;
74233;SDS011;62591;55.764;37.718;2023-01-15T09:18:35;27.38;;;10.10;;
74233;SDS011;62591;55.764;37.718;2023-01-15T09:21:04;25.48;;;11.57;;
74233;SDS011;62591;55.764;37.718;2023-01-15T09:23:33;29.88;;;11.93;;
74233;SDS011;62591;55.764;37.718;2023-01-15T09:26:02;28.98;;;12.52;;
74233;SDS011;62591;55.764;37.718;2023-01-15T09:28:32;22.52;;;9.00;;
74233;SDS011;62591;55.764;37.718;2023-01-15T09:31:02;24.00;;;10.30;;
74233;SDS011;62591;55.764;37.718;2023-01-15T09:33:31;27.30;;;9.68;;
74233;SDS011;62591;55.764;37.718;2023-01-15T09:36:03;23.48;;;9.00;;
74233;SDS011;62591;55.764;37.718;2023-01-15T09:38:33;25.13;;;9.45;;
74233;SDS011;62591;55.764;37.718;2023-01-15T09:41:02;18.92;;;9.82;;
74233;SDS011;62591;55.764;37.718;2023-01-15T09:43:59;25.45;;;8.43;;
74233;SDS011;62591;55.764;37.718;2023-01-15T09:46:41;20.88;;;8.88;;
74233;SDS011;62591;55.764;37.718;2023-01-15T09:49:19;26.85;;;8.38;;
74233;SDS011;62591;55.764;37.718;2023-01-15T09:52:02;20.15;;;8.30;;
74233;SDS011;62591;55.764;37.718;2023-01-15T09:54:42;15.35;;;8.02;;
74233;SDS011;62591;55.764;37.718;2023-01-15T09:57:15;26.63;;;8.65;;
74233;SDS011;62591;55.764;37.718;2023-01-15T09:59:47;23.30;;;8.43;;
74233;SDS011;62591;55.764;37.718;2023-01-15T10:02:19;21.52;;;7.93;;
74233;SDS011;62591;55.764;37.718;2023-01-15T10:04:53;21.77;;;8.10;;
74233;SDS011;62591;55.764;37.718;2023-01-15T10:07:33;23.95;;;9.73;;
74233;SDS011;62591;55.764;37.718;2023-01-15T10:10:10;20.80;;;8.55;;
74233;SDS011;62591;55.764;37.718;2023-01-15T10:12:44;20.98;;;8.85;;
74233;SDS011;62591;55.764;37.718;2023-01-15T10:15:31;20.30;;;8.70;;
74233;SDS011;62591;55.764;37.718;2023-01-15T10:18:04;23.67;;;8.18;;
74233;SDS011;62591;55.764;37.718;2023-01-15T10:20:48;19.60;;;7.93;;
74233;SDS011;62591;55.764;37.718;2023-01-15T10:23:35;19.00;;;8.60;;
74233;SDS011;62591;55.764;37.718;2023-01-15T10:26:12;19.17;;;7.47;;
74233;SDS011;62591;55.764;37.718;2023-01-15T10:28:51;18.48;;;7.60;;
74233;SDS011;62591;55.764;37.718;2023-01-15T10:34:24;16.02;;;7.22;;
74233;SDS011;62591;55.764;37.718;2023-01-15T10:37:10;20.10;;;8.32;;
74233;SDS011;62591;55.764;37.718;2023-01-15T10:39:45;19.02;;;7.43;;
74233;SDS011;62591;55.764;37.718;2023-01-15T10:42:22;20.27;;;7.32;;
74233;SDS011;62591;55.764;37.718;2023-01-15T10:45:05;22.50;;;8.02;;
74233;SDS011;62591;55.764;37.718;2023-01-15T10:47:38;24.77;;;11.70;;
74233;SDS011;62591;55.764;37.718;2023-01-15T10:50:12;26.75;;;13.18;;
74233;SDS011;62591;55.764;37.718;2023-01-15T10:52:45;19.92;;;7.35;;
74233;SDS011;62591;55.764;37.718;2023-01-15T10:55:19;21.10;;;7.82;;
74233;SDS011;62591;55.764;37.718;2023-01-15T10:57:55;18.90;;;7.47;;
74233;SDS011;62591;55.764;37.718;2023-01-15T11:00:36;21.20;;;7.50;;
74233;SDS011;62591;55.764;37.718;2023-01-15T11:03:08;17.25;;;7.88;;
74233;SDS011;62591;55.764;37.718;2023-01-15T11:05:41;15.93;;;6.97;;
74233;SDS011;62591;55.764;37.718;2023-01-15T11:08:13;20.58;;;7.85;;
74233;SDS011;62591;55.764;37.718;2023-01-15T11:11:22;20.00;;;7.10;;
74233;SDS011;62591;55.764;37.718;2023-01-15T11:17:37;16.65;;;6.30;;
74233;SDS011;62591;55.764;37.718;2023-01-15T11:20:27;15.27;;;7.43;;
74233;SDS011;62591;55.764;37.718;2023-01-15T11:23:05;12.38;;;6.45;;
74233;SDS011;62591;55.764;37.718;2023-01-15T11:25:35;16.23;;;6.38;;
74233;SDS011;62591;55.764;37.718;2023-01-15T11:28:11;19.73;;;6.88;;
74233;SDS011;62591;55.764;37.718;2023-01-15T11:30:41;18.67;;;6.88;;
74233;SDS011;62591;55.764;37.718;2023-01-15T11:33:20;16.25;;;6.65;;
74233;SDS011;62591;55.764;37.718;2023-01-15T11:35:51;13.18;;;6.13;;
74233;SDS011;62591;55.764;37.718;2023-01-15T11:38:24;18.92;;;5.90;;
74233;SDS011;62591;55.764;37.718;2023-01-15T11:40:55;15.05;;;7.15;;
74233;SDS011;62591;55.764;37.718;2023-01-15T11:43:27;13.40;;;6.28;;
74233;SDS011;62591;55.764;37.718;2023-01-15T11:46:27;15.45;;;6.43;;
74233;SDS011;62591;55.764;37.718;2023-01-15T11:49:15;16.33;;;5.90;;
74233;SDS011;62591;55.764;37.718;2023-01-15T11:52:02;18.33;;;7.22;;
74233;SDS011;62591;55.764;37.718;2023-01-15T11:54:32;16.73;;;6.40;;
74233;SDS011;62591;55.764;37.718;2023-01-15T11:57:06;16.73;;;7.30;;
74233;SDS011;62591;55.764;37.718;2023-01-15T11:59:36;16.13;;;6.63;;
74233;SDS011;62591;55.764;37.718;2023-01-15T12:02:10;15.23;;;6.32;;
74233;SDS011;62591;55.764;37.718;2023-01-15T12:04:47;24.95;;;9.77;;
74233;SDS011;62591;55.764;37.718;2023-01-15T12:07:19;17.48;;;8.73;;
74233;SDS011;62591;55.764;37.718;2023-01-15T12:09:58;16.85;;;7.13;;
74233;SDS011;62591;55.764;37.718;2023-01-15T12:12:39;20.00;;;6.75;;
74233;SDS011;62591;55.764;37.718;2023-01-15T12:15:29;14.15;;;5.93;;
74233;SDS011;62591;55.764;37.718;2023-01-15T12:18:17;13.30;;;6.32;;
74233;SDS011;62591;55.764;37.718;2023-01-15T12:23:36;13.90;;;5.95;;
74233;SDS011;62591;55.764;37.718;2023-01-15T12:26:23;20.83;;;6.30;;
74233;SDS011;62591;55.764;37.718;2023-01-15T12:29:00;14.07;;;5.82;;
74233;SDS011;62591;55.764;37.718;2023-01-15T12:31:39;13.57;;;5.78;;
74233;SDS011;62591;55.764;37.718;2023-01-15T12:34:15;16.60;;;6.68;;
74233;SDS011;62591;55.764;37.718;2023-01-15T12:36:50;15.32;;;6.20;;
74233;SDS011;62591;55.764;37.718;2023-01-15T12:39:23;9.27;;;4.90;;
74233;SDS011;62591;55.764;37.718;2023-01-15T12:41:57;17.35;;;6.07;;
74233;SDS011;62591;55.764;37.718;2023-01-15T12:44:48;11.05;;;5.40;;
74233;SDS011;62591;55.764;37.718;2023-01-15T12:47:35;12.18;;;5.18;;
74233;SDS011;62591;55.764;37.718;2023-01-15T12:50:22;13.63;;;4.85;;
74233;SDS011;62591;55.764;37.718;2023-01-15T12:52:58;13.18;;;5.00;;
74233;SDS011;62591;55.764;37.718;2023-01-15T12:55:32;19.05;;;5.85;;
74233;SDS011;62591;55.764;37.718;2023-01-15T12:58:07;15.02;;;5.10;;
74233;SDS011;62591;55.764;37.718;2023-01-15T13:00:44;13.10;;;5.13;;
74233;SDS011;62591;55.764;37.718;2023-01-15T13:03:18;10.60;;;5.00;;
74233;SDS011;62591;55.764;37.718;2023-01-15T13:05:52;17.92;;;5.05;;
74233;SDS011;62591;55.764;37.718;2023-01-15T13:08:24;10.65;;;4.70;;
74233;SDS011;62591;55.764;37.718;2023-01-15T13:10:57;12.55;;;4.78;;
74233;SDS011;62591;55.764;37.718;2023-01-15T13:13:28;11.48;;;5.00;;
74233;SDS011;62591;55.764;37.718;2023-01-15T13:16:01;12.20;;;5.40;;
74233;SDS011;62591;55.764;37.718;2023-01-15T13:18:42;14.93;;;5.88;;
74233;SDS011;62591;55.764;37.718;2023-01-15T13:21:20;11.95;;;4.95;;
74233;SDS011;62591;55.764;37.718;2023-01-15T13:23:56;12.63;;;5.18;;
74233;SDS011;62591;55.764;37.718;2023-01-15T13:27:04;16.83;;;5.95;;
74233;SDS011;62591;55.764;37.718;2023-01-15T13:29:43;19.75;;;10.82;;
74233;SDS011;62591;55.764;37.718;2023-01-15T13:32:24;15.35;;;6.28;;
74233;SDS011;62591;55.764;37.718;2023-01-15T13:34:58;13.73;;;5.57;;
74233;SDS011;62591;55.764;37.718;2023-01-15T13:37:33;16.60;;;6.07;;
74233;SDS011;62591;55.764;37.718;2023-01-15T13:40:08;15.55;;;5.20;;
74233;SDS011;62591;55.764;37.718;2023-01-15T13:42:43;13.65;;;5.43;;
74233;SDS011;62591;55.764;37.718;2023-01-15T13:45:21;15.52;;;5.88;;
74233;SDS011;62591;55.764;37.718;2023-01-15T13:47:55;15.23;;;5.78;;
74233;SDS011;62591;55.764;37.718;2023-01-15T13:50:28;12.77;;;5.32;;
74233;SDS011;62591;55.764;37.718;2023-01-15T13:53:04;12.82;;;5.68;;
74233;SDS011;62591;55.764;37.718;2023-01-15T13:55:40;13.98;;;5.35;;
74233;SDS011;62591;55.764;37.718;2023-01-15T13:58:19;14.05;;;6.25;;
74233;SDS011;62591;55.764;37.718;2023-01-15T14:01:01;16.38;;;7.00;;
74233;SDS011;62591;55.764;37.718;2023-01-15T14:03:34;15.85;;;6.65;;
74233;SDS011;62591;55.764;37.718;2023-01-15T14:06:07;16.85;;;6.95;;
74233;SDS011;62591;55.764;37.718;2023-01-15T14:08:37;12.65;;;6.05;;
74233;SDS011;62591;55.764;37.718;2023-01-15T14:11:29;16.38;;;6.00;;
74233;SDS011;62591;55.764;37.718;2023-01-15T14:14:24;16.23;;;6.20;;
74233;SDS011;62591;55.764;37.718;2023-01-15T14:17:17;11.68;;;5.50;;
74233;SDS011;62591;55.764;37.718;2023-01-15T14:20:12;18.42;;;6.20;;
74233;SDS011;62591;55.764;37.718;2023-01-15T14:26:05;20.40;;;13.30;;
74233;SDS011;62591;55.764;37.718;2023-01-15T14:28:53;32.17;;;17.88;;
74233;SDS011;62591;55.764;37.718;2023-01-15T14:31:36;25.52;;;12.88;;
74233;SDS011;62591;55.764;37.718;2023-01-15T14:34:11;21.55;;;10.93;;
74233;SDS011;62591;55.764;37.718;2023-01-15T14:36:48;31.08;;;17.77;;
74233;SDS011;62591;55.764;37.718;2023-01-15T14:39:23;15.90;;;7.57;;
74233;SDS011;62591;55.764;37.718;2023-01-15T14:42:09;12.52;;;6.32;;
74233;SDS011;62591;55.764;37.718;2023-01-15T14:45:02;14.13;;;5.93;;
74233;SDS011;62591;55.764;37.718;2023-01-15T14:47:35;12.55;;;6.22;;
74233;SDS011;62591;55.764;37.718;2023-01-15T14:50:21;15.20;;;7.53;;
74233;SDS011;62591;55.764;37.718;2023-01-15T14:52:53;14.32;;;5.65;;
74233;SDS011;62591;55.764;37.718;2023-01-15T14:55:27;16.00;;;6.20;;
74233;SDS011;62591;55.764;37.718;2023-01-15T14:57:57;14.95;;;6.50;;
74233;SDS011;62591;55.764;37.718;2023-01-15T15:00:35;13.23;;;6.35;;
74233;SDS011;62591;55.764;37.718;2023-01-15T15:03:12;15.90;;;6.60;;
74233;SDS011;62591;55.764;37.718;2023-01-15T15:05:44;11.88;;;5.90;;
74233;SDS011;62591;55.764;37.718;2023-01-15T15:08:14;10.75;;;5.60;;
74233;SDS011;62591;55.764;37.718;2023-01-15T15:10:48;15.57;;;6.57;;
74233;SDS011;62591;55.764;37.718;2023-01-15T15:13:25;16.58;;;7.32;;
74233;SDS011;62591;55.764;37.718;2023-01-15T15:15:58;13.88;;;5.55;;
74233;SDS011;62591;55.764;37.718;2023-01-15T15:18:35;13.95;;;5.80;;
74233;SDS011;62591;55.764;37.718;2023-01-15T15:21:09;13.68;;;5.88;;